createdAt,value
2022-08-16T00:01:26.524Z,21.49
2022-08-16T00:04:05.149Z,21.45
2022-08-16T00:06:34.233Z,21.03
2022-08-16T00:09:06.863Z,21.39
2022-08-16T00:11:35.869Z,21.36
2022-08-16T00:14:09.166Z,21.30
2022-08-16T00:17:00.824Z,21.20
2022-08-16T00:19:28.864Z,21.08
2022-08-16T00:22:13.800Z,20.96
2022-08-16T00:24:46.778Z,20.98
2022-08-16T00:27:17.441Z,20.95
2022-08-16T00:29:46.088Z,20.87
2022-08-16T00:32:18.173Z,20.80
2022-08-16T00:34:52.897Z,20.76
2022-08-16T00:37:56.330Z,20.76
2022-08-16T00:40:34.604Z,20.80
2022-08-16T00:43:12.030Z,20.86
2022-08-16T00:45:58.081Z,20.87
2022-08-16T00:48:44.187Z,20.95
2022-08-16T00:51:17.497Z,20.94
2022-08-16T00:53:46.982Z,20.56
2022-08-16T00:56:55.872Z,20.78
2022-08-16T00:59:11.255Z,20.47
2022-08-16T01:01:45.153Z,20.39
2022-08-16T01:04:29.585Z,20.52
2022-08-16T01:07:02.066Z,19.97
2022-08-16T01:09:33.826Z,20.51
2022-08-16T01:12:08.768Z,20.49
2022-08-16T01:14:45.223Z,20.43
2022-08-16T01:17:17.232Z,20.34
2022-08-16T01:19:49.766Z,20.05
2022-08-16T01:22:49.884Z,20.19
2022-08-16T01:25:22.305Z,19.92
2022-08-16T01:27:54.509Z,20.16
2022-08-16T01:30:26.730Z,19.93
2022-08-16T01:33:02.316Z,19.86
2022-08-16T01:35:52.607Z,20.10
2022-08-16T01:38:28.039Z,19.87
2022-08-16T01:41:01.890Z,20.04
2022-08-16T01:43:32.361Z,20.03
2022-08-16T01:46:37.978Z,20.03
2022-08-16T01:48:56.309Z,19.88
2022-08-16T01:51:27.120Z,20.10
2022-08-16T01:53:57.679Z,20.08
2022-08-16T01:56:32.976Z,19.72
2022-08-16T01:59:06.966Z,19.98
2022-08-16T02:01:49.754Z,19.89
2022-08-16T02:04:40.026Z,19.82
2022-08-16T02:07:13.479Z,19.75
2022-08-16T02:09:42.569Z,19.67
2022-08-16T02:12:50.481Z,19.65
2022-08-16T02:15:25.248Z,19.59
2022-08-16T02:17:55.410Z,19.60
2022-08-16T02:20:26.494Z,19.65
2022-08-16T02:22:57.532Z,19.66
2022-08-16T02:25:52.235Z,19.66
2022-08-16T02:28:19.178Z,19.57
2022-08-16T02:30:51.049Z,19.55
2022-08-16T02:33:24.871Z,19.48
2022-08-16T02:36:14.626Z,19.47
2022-08-16T02:39:01.872Z,19.41
2022-08-16T02:41:30.186Z,19.40
2022-08-16T02:44:01.224Z,19.40
2022-08-16T02:46:30.170Z,19.36
2022-08-16T02:49:03.145Z,19.34
2022-08-16T02:51:35.662Z,19.03
2022-08-16T02:54:05.301Z,19.35
2022-08-16T02:56:35.668Z,19.40
2022-08-16T02:59:11.513Z,19.40
2022-08-16T03:01:43.320Z,19.35
2022-08-16T03:04:41.132Z,19.28
2022-08-16T03:07:10.715Z,19.16
2022-08-16T03:09:44.632Z,19.14
2022-08-16T03:12:17.948Z,19.10
2022-08-16T03:14:49.383Z,19.09
2022-08-16T03:17:21.948Z,19.01
2022-08-16T03:20:02.396Z,18.95
2022-08-16T03:22:38.996Z,18.97
2022-08-16T03:25:17.350Z,18.80
2022-08-16T03:27:56.810Z,19.04
2022-08-16T03:30:32.916Z,18.15
2022-08-16T03:33:05.569Z,19.05
2022-08-16T03:35:41.863Z,18.97
2022-08-16T03:38:34.029Z,18.92
2022-08-16T03:41:25.760Z,18.87
2022-08-16T03:44:00.021Z,18.85
2022-08-16T03:46:47.749Z,18.87
2022-08-16T03:49:36.505Z,18.80
2022-08-16T03:52:07.808Z,18.81
2022-08-16T03:54:38.173Z,18.38
2022-08-16T03:57:22.378Z,18.68
2022-08-16T03:59:51.547Z,18.69
2022-08-16T04:02:31.564Z,18.67
2022-08-16T04:05:04.113Z,18.67
2022-08-16T04:07:33.787Z,18.70
2022-08-16T04:10:35.550Z,18.70
2022-08-16T04:12:59.426Z,18.65
2022-08-16T04:15:30.925Z,18.27
2022-08-16T04:18:21.089Z,18.56
2022-08-16T04:20:51.307Z,18.52
2022-08-16T04:23:23.575Z,18.51
2022-08-16T04:25:55.053Z,18.51
2022-08-16T04:28:52.068Z,18.49
2022-08-16T04:31:14.005Z,18.40
2022-08-16T04:33:51.201Z,18.44
2022-08-16T04:36:23.125Z,18.44
2022-08-16T04:38:52.565Z,18.50
2022-08-16T04:41:32.892Z,18.48
2022-08-16T04:44:32.699Z,18.41
2022-08-16T04:47:02.706Z,18.34
2022-08-16T04:49:43.598Z,18.33
2022-08-16T04:52:34.213Z,18.30
2022-08-16T04:55:06.296Z,18.23
2022-08-16T04:57:37.691Z,18.25
2022-08-16T05:00:30.424Z,18.27
2022-08-16T05:03:02.640Z,18.27
2022-08-16T05:05:55.395Z,18.32
2022-08-16T05:08:31.080Z,18.07
2022-08-16T05:11:08.500Z,18.14
2022-08-16T05:13:42.109Z,18.25
2022-08-16T05:16:21.375Z,17.36
2022-08-16T05:18:58.931Z,18.33
2022-08-16T05:21:35.965Z,18.38
2022-08-16T05:24:09.087Z,18.31
2022-08-16T05:26:43.031Z,18.47
2022-08-16T05:29:14.712Z,18.50
2022-08-16T05:31:57.074Z,18.22
2022-08-16T05:34:25.382Z,18.33
2022-08-16T05:36:58.813Z,18.66
2022-08-16T05:39:37.626Z,18.83
2022-08-16T05:42:10.369Z,19.07
2022-08-16T05:44:41.332Z,19.31
2022-08-16T05:47:15.293Z,19.58
2022-08-16T05:49:46.404Z,19.82
2022-08-16T05:52:21.512Z,19.90
2022-08-16T05:55:01.062Z,19.93
2022-08-16T05:57:34.370Z,20.06
2022-08-16T06:00:08.796Z,20.24
2022-08-16T06:02:47.424Z,20.39
2022-08-16T06:05:41.417Z,20.47
2022-08-16T06:08:32.059Z,20.53
2022-08-16T06:11:10.157Z,20.54
2022-08-16T06:13:42.951Z,20.60
2022-08-16T06:16:18.316Z,20.71
2022-08-16T06:18:49.269Z,20.86
2022-08-16T06:21:22.928Z,21.02
2022-08-16T06:24:01.254Z,21.27
2022-08-16T06:26:36.871Z,21.53
2022-08-16T06:29:07.694Z,22.16
2022-08-16T06:31:46.864Z,22.73
2022-08-16T06:34:54.890Z,23.29
2022-08-16T06:37:10.331Z,23.95
2022-08-16T06:39:49.663Z,24.52
2022-08-16T06:42:47.562Z,25.11
2022-08-16T06:45:47.605Z,25.58
2022-08-16T06:48:33.067Z,26.00
2022-08-16T06:51:04.719Z,26.39
2022-08-16T06:53:36.654Z,26.77
2022-08-16T06:56:14.407Z,26.73
2022-08-16T06:59:10.251Z,27.35
2022-08-16T07:01:53.439Z,27.70
2022-08-16T07:04:33.052Z,28.03
2022-08-16T07:07:14.683Z,28.25
2022-08-16T07:09:44.169Z,28.59
2022-08-16T07:12:15.424Z,28.85
2022-08-16T07:14:47.944Z,29.20
2022-08-16T07:17:19.647Z,29.54
2022-08-16T07:20:29.625Z,29.77
2022-08-16T07:22:59.003Z,29.97
2022-08-16T07:25:42.374Z,30.10
2022-08-16T07:28:20.700Z,29.40
2022-08-16T07:30:50.458Z,30.43
2022-08-16T07:33:52.712Z,30.61
2022-08-16T07:36:21.879Z,31.09
2022-08-16T07:38:51.781Z,31.27
2022-08-16T07:41:21.215Z,31.45
2022-08-16T07:44:03.844Z,31.47
2022-08-16T07:46:46.093Z,31.56
2022-08-16T07:49:21.185Z,31.60
2022-08-16T07:51:50.126Z,31.49
2022-08-16T07:54:32.436Z,31.31
2022-08-16T07:57:11.813Z,31.10
2022-08-16T07:59:45.959Z,30.99
2022-08-16T08:02:20.281Z,30.68
2022-08-16T08:04:54.110Z,30.66
2022-08-16T08:07:27.642Z,30.55
2022-08-16T08:09:57.465Z,30.45
2022-08-16T08:12:31.857Z,30.40
2022-08-16T08:15:09.704Z,30.23
2022-08-16T08:17:43.319Z,30.08
2022-08-16T08:20:20.854Z,30.06
2022-08-16T08:23:00.902Z,29.88
2022-08-16T08:25:55.172Z,30.07
2022-08-16T08:28:26.721Z,30.06
2022-08-16T08:31:03.984Z,30.01
2022-08-16T08:33:38.293Z,29.90
2022-08-16T08:36:22.014Z,29.89
2022-08-16T08:38:53.542Z,29.90
2022-08-16T08:41:28.472Z,29.97
2022-08-16T08:43:58.452Z,30.07
2022-08-16T08:46:29.218Z,30.10
2022-08-16T08:49:08.735Z,30.16
2022-08-16T08:51:42.409Z,30.21
2022-08-16T08:54:20.570Z,30.23
2022-08-16T08:56:53.007Z,30.27
2022-08-16T08:59:28.919Z,30.37
2022-08-16T09:02:03.215Z,30.53
2022-08-16T09:04:40.049Z,30.67
2022-08-16T09:07:08.896Z,30.80
2022-08-16T09:09:41.166Z,30.90
2022-08-16T09:12:35.900Z,31.06
2022-08-16T09:15:13.719Z,30.37
2022-08-16T09:17:51.385Z,31.34
2022-08-16T09:20:24.410Z,31.45
2022-08-16T09:22:57.354Z,31.50
2022-08-16T09:25:55.785Z,31.67
2022-08-16T09:29:13.471Z,31.84
2022-08-16T09:31:20.308Z,31.98
2022-08-16T09:33:51.793Z,32.13
2022-08-16T09:36:32.061Z,32.32
2022-08-16T09:39:03.473Z,32.40
2022-08-16T09:41:32.583Z,32.42
2022-08-16T09:45:10.846Z,32.48
2022-08-16T09:46:57.476Z,32.57
2022-08-16T09:49:37.294Z,32.62
2022-08-16T09:52:06.279Z,32.76
2022-08-16T09:54:39.079Z,32.89
2022-08-16T09:57:13.283Z,32.95
2022-08-16T09:59:42.299Z,32.95
2022-08-16T10:02:23.059Z,32.98
2022-08-16T10:04:58.054Z,33.11
2022-08-16T10:07:26.857Z,33.22
2022-08-16T10:10:13.453Z,33.04
2022-08-16T10:13:05.043Z,33.16
2022-08-16T10:15:34.393Z,33.33
2022-08-16T10:18:56.125Z,33.55
2022-08-16T10:20:53.122Z,33.65
2022-08-16T10:23:26.024Z,33.80
2022-08-16T10:27:17.691Z,33.97
2022-08-16T10:28:45.578Z,34.13
2022-08-16T10:31:45.595Z,33.70
2022-08-16T10:34:30.701Z,34.20
2022-08-16T10:36:58.394Z,34.22
2022-08-16T10:39:26.969Z,34.25
2022-08-16T10:42:09.812Z,34.43
2022-08-16T10:44:38.121Z,34.56
2022-08-16T10:47:07.400Z,34.67
2022-08-16T10:49:37.112Z,34.62
2022-08-16T10:52:18.225Z,34.60
2022-08-16T10:57:36.045Z,34.39
2022-08-16T11:00:21.256Z,34.42
2022-08-16T11:03:00.463Z,34.41
2022-08-16T11:08:28.312Z,34.66
2022-08-16T11:11:12.964Z,34.34
2022-08-16T11:14:11.223Z,34.63
2022-08-16T11:19:26.255Z,34.62
2022-08-16T11:22:39.691Z,34.75
2022-08-16T11:25:11.496Z,34.75
2022-08-16T11:27:36.604Z,34.58
2022-08-16T11:30:09.161Z,34.33
2022-08-16T11:32:41.139Z,34.15
2022-08-16T11:35:14.984Z,34.01
2022-08-16T11:40:40.834Z,33.73
2022-08-16T11:43:16.894Z,33.53
2022-08-16T11:45:54.245Z,33.50
2022-08-16T11:48:24.932Z,33.45
2022-08-16T11:50:53.276Z,33.61
2022-08-16T11:53:22.234Z,33.97
2022-08-16T11:55:54.983Z,34.21
2022-08-16T11:58:24.759Z,34.18
2022-08-16T12:00:56.070Z,34.05
2022-08-16T12:03:34.744Z,34.10
2022-08-16T12:06:10.892Z,34.00
2022-08-16T12:08:40.330Z,34.15
2022-08-16T12:11:11.492Z,34.39
2022-08-16T12:13:40.767Z,34.65
2022-08-16T12:16:10.468Z,34.84
2022-08-16T12:18:40.611Z,34.75
2022-08-16T12:21:09.826Z,34.74
2022-08-16T12:23:39.344Z,34.65
2022-08-16T12:26:10.398Z,34.81
2022-08-16T12:28:54.600Z,34.87
2022-08-16T12:31:25.257Z,34.74
2022-08-16T12:33:54.155Z,34.72
2022-08-16T12:36:23.814Z,34.78
2022-08-16T12:38:53.081Z,34.88
2022-08-16T12:41:25.024Z,34.88
2022-08-16T12:43:56.900Z,34.87
2022-08-16T12:46:27.467Z,34.63
2022-08-16T12:48:58.346Z,34.58
2022-08-16T12:51:33.034Z,34.34
2022-08-16T12:54:20.601Z,34.67
2022-08-16T12:56:50.478Z,34.61
2022-08-16T12:59:22.008Z,34.55
2022-08-16T13:01:58.316Z,34.60
2022-08-16T13:04:31.396Z,34.65
2022-08-16T13:07:04.613Z,34.73
2022-08-16T13:09:45.661Z,34.78
2022-08-16T13:12:20.990Z,34.84
2022-08-16T13:14:52.199Z,34.89
2022-08-16T13:17:26.249Z,34.90
2022-08-16T13:20:07.002Z,34.88
2022-08-16T13:22:36.642Z,34.87
2022-08-16T13:25:07.156Z,34.58
2022-08-16T13:28:03.206Z,34.71
2022-08-16T13:30:36.221Z,34.51
2022-08-16T13:33:12.235Z,34.15
2022-08-16T13:35:44.034Z,34.20
2022-08-16T13:38:24.331Z,33.81
2022-08-16T13:40:56.068Z,33.91
2022-08-16T13:43:26.680Z,33.92
2022-08-16T13:45:57.424Z,33.89
2022-08-16T13:48:37.042Z,33.84
2022-08-16T13:51:16.605Z,33.56
2022-08-16T13:53:54.750Z,33.36
2022-08-16T13:56:38.215Z,32.39
2022-08-16T13:59:20.027Z,32.93
2022-08-16T14:01:55.641Z,32.86
2022-08-16T14:04:26.665Z,32.80
2022-08-16T14:06:56.800Z,32.80
2022-08-16T14:09:27.011Z,32.66
2022-08-16T14:11:58.097Z,32.69
2022-08-16T14:14:30.141Z,32.72
2022-08-16T14:17:02.928Z,32.57
2022-08-16T14:19:31.761Z,32.39
2022-08-16T14:22:15.092Z,31.41
2022-08-16T14:24:47.512Z,32.20
2022-08-16T14:27:17.982Z,32.25
2022-08-16T14:29:49.305Z,32.16
2022-08-16T14:32:27.230Z,32.07
2022-08-16T14:35:04.141Z,32.16
2022-08-16T14:37:32.781Z,32.06
2022-08-16T14:40:03.975Z,32.02
2022-08-16T14:42:36.710Z,31.96
2022-08-16T14:45:06.602Z,31.97
2022-08-16T14:47:38.394Z,32.04
2022-08-16T14:50:09.409Z,32.23
2022-08-16T14:52:56.053Z,32.41
2022-08-16T14:55:26.037Z,32.60
2022-08-16T14:57:55.178Z,32.56
2022-08-16T15:00:33.270Z,32.86
2022-08-16T15:03:09.485Z,32.89
2022-08-16T15:05:39.904Z,32.74
2022-08-16T15:08:08.586Z,32.80
2022-08-16T15:10:42.751Z,32.83
2022-08-16T15:13:15.384Z,32.77
2022-08-16T15:15:51.499Z,32.72
2022-08-16T15:18:31.518Z,32.41
2022-08-16T15:21:01.921Z,32.26
2022-08-16T15:23:33.991Z,32.20
2022-08-16T15:26:08.265Z,32.14
2022-08-16T15:28:38.427Z,32.16
2022-08-16T15:31:09.231Z,31.90
2022-08-16T15:33:45.413Z,31.61
2022-08-16T15:36:21.427Z,31.74
2022-08-16T15:38:57.786Z,30.85
2022-08-16T15:42:03.359Z,31.54
2022-08-16T15:44:51.877Z,31.53
2022-08-16T15:47:25.093Z,31.49
2022-08-16T15:49:57.936Z,31.67
2022-08-16T15:52:30.266Z,30.65
2022-08-16T15:55:13.353Z,31.52
2022-08-16T15:57:51.302Z,31.53
2022-08-16T16:00:21.246Z,31.55
2022-08-16T16:02:50.087Z,31.50
2022-08-16T16:05:20.132Z,31.48
2022-08-16T16:07:55.652Z,31.53
2022-08-16T16:10:29.589Z,31.54
2022-08-16T16:13:00.899Z,31.52
2022-08-16T16:15:31.999Z,30.73
2022-08-16T16:18:05.302Z,31.47
2022-08-16T16:20:43.903Z,31.44
2022-08-16T16:23:14.669Z,31.30
2022-08-16T16:25:44.843Z,31.20
2022-08-16T16:29:06.100Z,31.13
2022-08-16T16:31:06.415Z,30.79
2022-08-16T16:33:38.502Z,30.91
2022-08-16T16:36:12.679Z,30.90
2022-08-16T16:38:45.364Z,30.84
2022-08-16T16:41:14.858Z,30.70
2022-08-16T16:43:45.657Z,30.56
2022-08-16T16:46:39.242Z,30.43
2022-08-16T16:49:07.446Z,30.28
2022-08-16T16:51:44.472Z,30.03
2022-08-16T16:54:14.017Z,30.05
2022-08-16T16:56:58.760Z,30.03
2022-08-16T16:59:28.061Z,29.97
2022-08-16T17:02:38.238Z,29.88
2022-08-16T17:04:47.316Z,29.72
2022-08-16T17:07:17.391Z,29.58
2022-08-16T17:09:47.460Z,29.64
2022-08-16T17:12:24.974Z,29.62
2022-08-16T17:15:07.557Z,29.52
2022-08-16T17:17:59.431Z,29.48
2022-08-16T17:20:27.463Z,29.45
2022-08-16T17:22:59.293Z,29.38
2022-08-16T17:25:36.431Z,29.30
2022-08-16T17:28:58.774Z,29.17
2022-08-16T17:30:55.116Z,29.09
2022-08-16T17:33:23.359Z,29.01
2022-08-16T17:35:56.122Z,28.93
2022-08-16T17:38:33.031Z,28.85
2022-08-16T17:41:18.245Z,28.75
2022-08-16T17:43:46.870Z,28.66
2022-08-16T17:46:50.089Z,28.64
2022-08-16T17:49:06.595Z,28.54
2022-08-16T17:51:35.324Z,28.55
2022-08-16T17:54:05.150Z,28.51
2022-08-16T17:56:34.573Z,28.48
2022-08-16T17:59:03.162Z,28.46
2022-08-16T18:01:31.781Z,28.44
2022-08-16T18:04:08.300Z,28.36
2022-08-16T18:06:38.167Z,28.34
2022-08-16T18:09:09.081Z,28.30
2022-08-16T18:11:43.150Z,28.29
2022-08-16T18:14:16.393Z,28.29
2022-08-16T18:16:46.264Z,28.30
2022-08-16T18:19:15.656Z,28.29
2022-08-16T18:22:02.057Z,28.23
2022-08-16T18:24:31.809Z,28.19
2022-08-16T18:27:25.008Z,28.11
2022-08-16T18:29:51.208Z,28.07
2022-08-16T18:32:21.947Z,28.04
2022-08-16T18:34:54.329Z,28.05
2022-08-16T18:37:23.173Z,28.04
2022-08-16T18:39:53.087Z,28.02
2022-08-16T18:42:22.506Z,27.95
2022-08-16T18:44:50.808Z,27.96
2022-08-16T18:47:19.125Z,27.45
2022-08-16T18:49:47.573Z,27.98
2022-08-16T18:52:25.464Z,27.96
2022-08-16T18:55:01.702Z,27.96
2022-08-16T18:57:31.556Z,27.94
2022-08-16T18:59:59.871Z,27.92
2022-08-16T19:02:56.828Z,27.92
2022-08-16T19:05:23.324Z,27.73
2022-08-16T19:07:52.711Z,28.00
2022-08-16T19:10:22.846Z,28.05
2022-08-16T19:12:51.213Z,28.11
2022-08-16T19:15:22.610Z,28.11
2022-08-16T19:17:50.968Z,28.13
2022-08-16T19:20:21.480Z,27.24
2022-08-16T19:23:10.265Z,28.12
2022-08-16T19:25:49.127Z,27.95
2022-08-16T19:28:49.360Z,27.32
2022-08-16T19:31:14.955Z,27.03
2022-08-16T19:33:53.395Z,26.71
2022-08-16T19:36:31.396Z,26.22
2022-08-16T19:39:05.213Z,25.68
2022-08-16T19:41:36.885Z,25.35
2022-08-16T19:44:06.792Z,24.99
2022-08-16T19:46:35.854Z,24.63
2022-08-16T19:49:05.981Z,24.34
2022-08-16T19:51:34.427Z,24.15
2022-08-16T19:54:02.914Z,24.00
2022-08-16T19:56:31.449Z,23.96
2022-08-16T19:59:18.590Z,23.95
2022-08-16T20:01:49.506Z,23.93
2022-08-16T20:04:18.125Z,23.98
2022-08-16T20:06:46.989Z,23.99
2022-08-16T20:09:15.900Z,24.00
2022-08-16T20:11:45.229Z,23.90
2022-08-16T20:14:24.616Z,23.83
2022-08-16T20:16:56.201Z,23.63
2022-08-16T20:19:25.034Z,23.37
2022-08-16T20:22:00.995Z,22.85
2022-08-16T20:24:35.293Z,22.60
2022-08-16T20:27:06.471Z,22.48
2022-08-16T20:29:37.746Z,22.42
2022-08-16T20:32:07.812Z,22.16
2022-08-16T20:34:37.111Z,22.26
2022-08-16T20:37:06.495Z,22.11
2022-08-16T20:39:35.068Z,22.16
2022-08-16T20:42:03.381Z,22.24
2022-08-16T20:44:32.156Z,21.92
2022-08-16T20:47:02.219Z,22.00
2022-08-16T20:49:30.708Z,22.08
2022-08-16T20:51:59.830Z,21.23
2022-08-16T20:54:29.582Z,21.98
2022-08-16T20:56:58.589Z,22.09
2022-08-16T20:59:27.120Z,22.21
2022-08-16T21:01:55.871Z,22.40
2022-08-16T21:04:29.179Z,22.51
2022-08-16T21:06:58.497Z,22.44
2022-08-16T21:09:29.629Z,22.46
2022-08-16T21:12:00.964Z,22.00
2022-08-16T21:14:29.790Z,22.31
2022-08-16T21:16:58.095Z,22.30
2022-08-16T21:19:27.765Z,22.37
2022-08-16T21:21:56.398Z,22.42
2022-08-16T21:24:26.491Z,22.37
2022-08-16T21:26:56.249Z,22.24
2022-08-16T21:29:42.744Z,22.39
2022-08-16T21:32:13.760Z,21.51
2022-08-16T21:34:43.661Z,22.36
2022-08-16T21:37:15.625Z,22.31
2022-08-16T21:39:45.094Z,22.37
2022-08-16T21:42:15.871Z,22.32
2022-08-16T21:44:45.313Z,22.51
2022-08-16T21:47:13.779Z,22.48
2022-08-16T21:49:43.507Z,22.40
2022-08-16T21:52:26.370Z,22.38
2022-08-16T21:54:58.219Z,22.37
2022-08-16T21:57:27.837Z,22.30
2022-08-16T22:00:08.288Z,22.30
2022-08-16T22:02:40.018Z,22.35
2022-08-16T22:05:11.627Z,22.31
2022-08-16T22:07:42.186Z,22.12
2022-08-16T22:11:05.190Z,22.00
2022-08-16T22:13:01.637Z,21.91
2022-08-16T22:15:30.569Z,21.86
2022-08-16T22:18:01.721Z,21.86
2022-08-16T22:20:31.637Z,21.86
2022-08-16T22:23:08.036Z,21.93
2022-08-16T22:25:36.805Z,21.86
2022-08-16T22:28:06.375Z,21.75
2022-08-16T22:30:35.077Z,21.69
2022-08-16T22:33:09.612Z,21.75
2022-08-16T22:35:44.280Z,21.86
2022-08-16T22:38:55.781Z,21.85
2022-08-16T22:41:05.470Z,21.83
2022-08-16T22:43:34.759Z,21.94
2022-08-16T22:46:03.083Z,21.94
2022-08-16T22:48:32.612Z,21.96
2022-08-16T22:51:09.156Z,21.66
2022-08-16T22:53:38.801Z,21.85
2022-08-16T22:56:07.462Z,21.78
2022-08-16T22:58:36.991Z,21.81
2022-08-16T23:01:08.785Z,21.86
2022-08-16T23:03:39.773Z,21.65
2022-08-16T23:06:12.244Z,20.87
2022-08-16T23:08:45.862Z,21.86
2022-08-16T23:11:21.179Z,21.82
2022-08-16T23:13:53.403Z,21.84
2022-08-16T23:16:32.430Z,21.82
2022-08-16T23:19:02.513Z,21.75
2022-08-16T23:21:32.829Z,21.74
2022-08-16T23:24:01.336Z,21.74
2022-08-16T23:26:46.980Z,21.71
2022-08-16T23:29:24.451Z,21.68
2022-08-16T23:32:00.250Z,21.66
2022-08-16T23:34:29.556Z,21.60
2022-08-16T23:36:59.320Z,21.62
2022-08-16T23:39:27.840Z,21.53
2022-08-16T23:41:56.180Z,21.30
2022-08-16T23:44:56.477Z,21.14
2022-08-16T23:47:13.313Z,20.89
2022-08-16T23:49:58.438Z,21.15
2022-08-16T23:52:45.192Z,21.28
2022-08-16T23:55:20.780Z,21.27
2022-08-16T23:57:49.691Z,21.29
